Osage River (Missouri), Saint Thomas (06926510)

StateMissouriLatestUnknown (31300 cfs)
RiverOsage RiverRatingObservedEstimated
Updated2024-06-14 23:45 (39 minutes ago)Flood - The river is flooding. Obstacles can be treacherous or deadly. The river should be avoided at this stage for casual trips and definitely for the inexperienced. Trips should be attempted only with protective gear and equipment.Flood(none)(none)
Discharge31300 cfs (median: 25800 cfs)High - The river is high and potentially dangerous, especially for the young and / or inexperienced. Normal stream obstacles are sometimes difficult to navigate. Extended distances can be attempted, but canoe travel may not be advisable.High(none)(none)
Height12.15 feetGood - Conditions are ideal for a canoe or kayak. Boats typically will drag on fewer than one-quarter of riffles, if at all, and portages are unnecessary or rare. Normal float lengths can be attempted without a problem.Good(none)(none)
TrendRising (falling over 24 hours)Low - River is low but can still be floated. Some riffles are okay but most come with significant dragging and might need a portage. Float lengths should be reduced to accommodate low flow, dragging, and portages.Low(none)(none)
USGSExternal icon USGS Site (External icon Duck Duck Go Maps)Poor - River is too low to float comfortably. Most or all riffles will drag or must be portaged and some obstacles (such as slick shelf rock) cause undue problems. Avoid the river at this stage for casual paddling trips.Poor(none)(none)

Trending Data

Plot Image

Trips for Osage River (Missouri), Saint Thomas (06926510)

DateStartEndDistanceConditionDischargeHeightFishingDetails

A total of 0 rows are displayed.

Condition Descriptions

Fishing Conditions

Fish Species

Notes

Classic Trip List

The classic River Trips application is still available for use. It is updated with the new system using a data retrofit. It is no longer maintained. The original River Trips application is no longer updated (as of 1 Dec 2016) but can be checked for errors or for the condition of the data before it was converted to the new system.

Gauge Data Table

ObservationHeightDischargeMaximum
Discharge
Minimum
Discharge
Mean
Discharge
P05P10P20P25P50
(Median)
P75P80P90P95
2024-06-14 23:45 12.15 31300 59000 (2019) 1160 (2006) 21500 1190 1430 1840 3290 25800 34200 35300 38800 52800
2024-06-14 22:45 12.07 31000 59200 (2019) 1150 (2006) 22700 1210 1530 2990 5430 26600 34700 35500 38300 52800
2024-06-14 21:45 11.94 30500 59200 (2019) 1150 (2006) 22700 1210 1530 2990 5430 26600 34700 35500 38300 52800
2024-06-14 20:45 11.91 30400 59200 (2019) 1150 (2006) 22700 1210 1530 2990 5430 26600 34700 35500 38300 52800
2024-06-14 19:45 11.88 30300 59200 (2019) 1150 (2006) 22700 1210 1530 2990 5430 26600 34700 35500 38300 52800
2024-06-14 18:45 11.89 30300 59200 (2019) 1150 (2006) 22700 1210 1530 2990 5430 26600 34700 35500 38300 52800
2024-06-14 17:45 11.89 30300 59200 (2019) 1150 (2006) 22700 1210 1530 2990 5430 26600 34700 35500 38300 52800
2024-06-14 16:45 11.91 30400 59200 (2019) 1150 (2006) 22700 1210 1530 2990 5430 26600 34700 35500 38300 52800
2024-06-14 15:45 11.98 30700 59200 (2019) 1150 (2006) 22700 1210 1530 2990 5430 26600 34700 35500 38300 52800
2024-06-14 14:45 12.02 30800 59200 (2019) 1150 (2006) 22700 1210 1530 2990 5430 26600 34700 35500 38300 52800
2024-06-14 13:45 12.19 31500 59200 (2019) 1150 (2006) 22700 1210 1530 2990 5430 26600 34700 35500 38300 52800
2024-06-14 12:45 12.27 31800 59200 (2019) 1150 (2006) 22700 1210 1530 2990 5430 26600 34700 35500 38300 52800
2024-06-14 11:45 12.45 32500 59200 (2019) 1150 (2006) 22700 1210 1530 2990 5430 26600 34700 35500 38300 52800
2024-06-14 10:45 12.62 33100 59200 (2019) 1150 (2006) 22700 1210 1530 2990 5430 26600 34700 35500 38300 52800
2024-06-14 09:45 12.78 33800 59200 (2019) 1150 (2006) 22700 1210 1530 2990 5430 26600 34700 35500 38300 52800
2024-06-14 08:45 12.89 34200 59200 (2019) 1150 (2006) 22700 1210 1530 2990 5430 26600 34700 35500 38300 52800
2024-06-14 07:45 13.02 34700 59200 (2019) 1150 (2006) 22700 1210 1530 2990 5430 26600 34700 35500 38300 52800
2024-06-14 06:45 13.05 34900 59200 (2019) 1150 (2006) 22700 1210 1530 2990 5430 26600 34700 35500 38300 52800
2024-06-14 05:45 13.11 35100 59200 (2019) 1150 (2006) 22700 1210 1530 2990 5430 26600 34700 35500 38300 52800
2024-06-14 04:45 13.08 35000 59200 (2019) 1150 (2006) 22700 1210 1530 2990 5430 26600 34700 35500 38300 52800
2024-06-14 03:45 13.06 34900 59200 (2019) 1150 (2006) 22700 1210 1530 2990 5430 26600 34700 35500 38300 52800
2024-06-14 02:45 13.04 34800 59200 (2019) 1150 (2006) 22700 1210 1530 2990 5430 26600 34700 35500 38300 52800
2024-06-14 01:45 13.00 34600 59200 (2019) 1150 (2006) 22700 1210 1530 2990 5430 26600 34700 35500 38300 52800
2024-06-14 00:45 12.96 34500 59200 (2019) 1150 (2006) 22700 1210 1530 2990 5430 26600 34700 35500 38300 52800
2024-06-13 23:45 12.90 34200 59200 (2019) 1150 (2006) 22700 1210 1530 2990 5430 26600 34700 35500 38300 52800
2024-06-13 22:45 12.88 34200 58500 (2019) 583 (2000) 22800 809 1480 3260 6420 27900 33900 34700 36500 51000
2024-06-13 21:45 12.78 33800 58500 (2019) 583 (2000) 22800 809 1480 3260 6420 27900 33900 34700 36500 51000
2024-06-13 20:45 12.73 33600 58500 (2019) 583 (2000) 22800 809 1480 3260 6420 27900 33900 34700 36500 51000
2024-06-13 19:45 12.64 33200 58500 (2019) 583 (2000) 22800 809 1480 3260 6420 27900 33900 34700 36500 51000
2024-06-13 18:45 12.58 33000 58500 (2019) 583 (2000) 22800 809 1480 3260 6420 27900 33900 34700 36500 51000
2024-06-13 17:45 12.49 32600 58500 (2019) 583 (2000) 22800 809 1480 3260 6420 27900 33900 34700 36500 51000
2024-06-13 16:45 12.41 32300 58500 (2019) 583 (2000) 22800 809 1480 3260 6420 27900 33900 34700 36500 51000
2024-06-13 15:45 12.34 32100 58500 (2019) 583 (2000) 22800 809 1480 3260 6420 27900 33900 34700 36500 51000
2024-06-13 14:45 12.33 32000 58500 (2019) 583 (2000) 22800 809 1480 3260 6420 27900 33900 34700 36500 51000
2024-06-13 13:45 12.28 31800 58500 (2019) 583 (2000) 22800 809 1480 3260 6420 27900 33900 34700 36500 51000
2024-06-13 12:45 12.30 31900 58500 (2019) 583 (2000) 22800 809 1480 3260 6420 27900 33900 34700 36500 51000
2024-06-13 11:45 12.33 32000 58500 (2019) 583 (2000) 22800 809 1480 3260 6420 27900 33900 34700 36500 51000
2024-06-13 10:45 12.42 32400 58500 (2019) 583 (2000) 22800 809 1480 3260 6420 27900 33900 34700 36500 51000
2024-06-13 09:45 12.52 32700 58500 (2019) 583 (2000) 22800 809 1480 3260 6420 27900 33900 34700 36500 51000
2024-06-13 08:45 12.67 33300 58500 (2019) 583 (2000) 22800 809 1480 3260 6420 27900 33900 34700 36500 51000
2024-06-13 07:45 12.81 33900 58500 (2019) 583 (2000) 22800 809 1480 3260 6420 27900 33900 34700 36500 51000
2024-06-13 06:45 12.93 34400 58500 (2019) 583 (2000) 22800 809 1480 3260 6420 27900 33900 34700 36500 51000
2024-06-13 05:45 12.96 34500 58500 (2019) 583 (2000) 22800 809 1480 3260 6420 27900 33900 34700 36500 51000
2024-06-13 04:45 12.96 34500 58500 (2019) 583 (2000) 22800 809 1480 3260 6420 27900 33900 34700 36500 51000
2024-06-13 03:45 12.96 34500 58500 (2019) 583 (2000) 22800 809 1480 3260 6420 27900 33900 34700 36500 51000
2024-06-13 02:45 12.94 34400 58500 (2019) 583 (2000) 22800 809 1480 3260 6420 27900 33900 34700 36500 51000
2024-06-13 01:45 12.88 34200 58500 (2019) 583 (2000) 22800 809 1480 3260 6420 27900 33900 34700 36500 51000
2024-06-13 00:45 12.86 34100 58500 (2019) 583 (2000) 22800 809 1480 3260 6420 27900 33900 34700 36500 51000
2024-06-12 23:45 12.85 34100 58500 (2019) 583 (2000) 22800 809 1480 3260 6420 27900 33900 34700 36500 51000
2024-06-12 22:45 12.76 33700 52000 (2019) 565 (2000) 23000 1050 1950 5100 9700 28400 34300 34500 36200 46500
2024-06-12 21:45 12.75 33700 52000 (2019) 565 (2000) 23000 1050 1950 5100 9700 28400 34300 34500 36200 46500
2024-06-12 20:45 12.72 33500 52000 (2019) 565 (2000) 23000 1050 1950 5100 9700 28400 34300 34500 36200 46500
2024-06-12 19:45 12.64 33200 52000 (2019) 565 (2000) 23000 1050 1950 5100 9700 28400 34300 34500 36200 46500
2024-06-12 18:45 12.61 33100 52000 (2019) 565 (2000) 23000 1050 1950 5100 9700 28400 34300 34500 36200 46500
2024-06-12 17:45 12.57 32900 52000 (2019) 565 (2000) 23000 1050 1950 5100 9700 28400 34300 34500 36200 46500
2024-06-12 16:45 12.52 32700 52000 (2019) 565 (2000) 23000 1050 1950 5100 9700 28400 34300 34500 36200 46500
2024-06-12 15:45 12.49 32600 52000 (2019) 565 (2000) 23000 1050 1950 5100 9700 28400 34300 34500 36200 46500
2024-06-12 14:45 12.41 32300 52000 (2019) 565 (2000) 23000 1050 1950 5100 9700 28400 34300 34500 36200 46500
2024-06-12 13:45 12.39 32300 52000 (2019) 565 (2000) 23000 1050 1950 5100 9700 28400 34300 34500 36200 46500
2024-06-12 12:45 12.34 32100 52000 (2019) 565 (2000) 23000 1050 1950 5100 9700 28400 34300 34500 36200 46500
2024-06-12 11:45 12.36 32100 52000 (2019) 565 (2000) 23000 1050 1950 5100 9700 28400 34300 34500 36200 46500
2024-06-12 10:45 12.40 32300 52000 (2019) 565 (2000) 23000 1050 1950 5100 9700 28400 34300 34500 36200 46500
2024-06-12 09:45 12.50 32700 52000 (2019) 565 (2000) 23000 1050 1950 5100 9700 28400 34300 34500 36200 46500
2024-06-12 08:45 12.63 33200 52000 (2019) 565 (2000) 23000 1050 1950 5100 9700 28400 34300 34500 36200 46500
2024-06-12 07:45 12.69 33400 52000 (2019) 565 (2000) 23000 1050 1950 5100 9700 28400 34300 34500 36200 46500
2024-06-12 06:45 12.75 33700 52000 (2019) 565 (2000) 23000 1050 1950 5100 9700 28400 34300 34500 36200 46500
2024-06-12 05:45 12.84 34000 52000 (2019) 565 (2000) 23000 1050 1950 5100 9700 28400 34300 34500 36200 46500
2024-06-12 04:45 12.82 34000 52000 (2019) 565 (2000) 23000 1050 1950 5100 9700 28400 34300 34500 36200 46500
2024-06-12 03:45 12.75 33700 52000 (2019) 565 (2000) 23000 1050 1950 5100 9700 28400 34300 34500 36200 46500
2024-06-12 02:45 12.67 33300 52000 (2019) 565 (2000) 23000 1050 1950 5100 9700 28400 34300 34500 36200 46500
2024-06-12 01:45 12.63 33200 52000 (2019) 565 (2000) 23000 1050 1950 5100 9700 28400 34300 34500 36200 46500
2024-06-12 00:45 12.54 32800 52000 (2019) 565 (2000) 23000 1050 1950 5100 9700 28400 34300 34500 36200 46500
2024-06-11 23:45 12.51 32700 52000 (2019) 565 (2000) 23000 1050 1950 5100 9700 28400 34300 34500 36200 46500
2024-06-11 22:45 12.42 32400 38500 (2002) 672 (2000) 22500 895 1850 5410 6790 27700 34900 35400 36200 37700
2024-06-11 21:45 12.37 32200 38500 (2002) 672 (2000) 22500 895 1850 5410 6790 27700 34900 35400 36200 37700
2024-06-11 20:45 12.32 32000 38500 (2002) 672 (2000) 22500 895 1850 5410 6790 27700 34900 35400 36200 37700
2024-06-11 19:45 12.32 32000 38500 (2002) 672 (2000) 22500 895 1850 5410 6790 27700 34900 35400 36200 37700
2024-06-11 18:45 12.34 32100 38500 (2002) 672 (2000) 22500 895 1850 5410 6790 27700 34900 35400 36200 37700
2024-06-11 17:45 12.42 32400 38500 (2002) 672 (2000) 22500 895 1850 5410 6790 27700 34900 35400 36200 37700
2024-06-11 16:45 12.51 32700 38500 (2002) 672 (2000) 22500 895 1850 5410 6790 27700 34900 35400 36200 37700
2024-06-11 15:45 12.63 33200 38500 (2002) 672 (2000) 22500 895 1850 5410 6790 27700 34900 35400 36200 37700
2024-06-11 14:45 12.81 33900 38500 (2002) 672 (2000) 22500 895 1850 5410 6790 27700 34900 35400 36200 37700
2024-06-11 13:45 12.97 34500 38500 (2002) 672 (2000) 22500 895 1850 5410 6790 27700 34900 35400 36200 37700
2024-06-11 12:45 13.14 35200 38500 (2002) 672 (2000) 22500 895 1850 5410 6790 27700 34900 35400 36200 37700
2024-06-11 11:45 13.23 35600 38500 (2002) 672 (2000) 22500 895 1850 5410 6790 27700 34900 35400 36200 37700
2024-06-11 10:45 13.27 35800 38500 (2002) 672 (2000) 22500 895 1850 5410 6790 27700 34900 35400 36200 37700
2024-06-11 09:45 13.35 36100 38500 (2002) 672 (2000) 22500 895 1850 5410 6790 27700 34900 35400 36200 37700
2024-06-11 08:45 13.43 36400 38500 (2002) 672 (2000) 22500 895 1850 5410 6790 27700 34900 35400 36200 37700
2024-06-11 07:45 13.47 36600 38500 (2002) 672 (2000) 22500 895 1850 5410 6790 27700 34900 35400 36200 37700
2024-06-11 06:45 13.49 36600 38500 (2002) 672 (2000) 22500 895 1850 5410 6790 27700 34900 35400 36200 37700
2024-06-11 05:45 13.46 36500 38500 (2002) 672 (2000) 22500 895 1850 5410 6790 27700 34900 35400 36200 37700
2024-06-11 04:45 13.46 36500 38500 (2002) 672 (2000) 22500 895 1850 5410 6790 27700 34900 35400 36200 37700
2024-06-11 03:45 13.43 36400 38500 (2002) 672 (2000) 22500 895 1850 5410 6790 27700 34900 35400 36200 37700
2024-06-11 02:45 13.46 36500 38500 (2002) 672 (2000) 22500 895 1850 5410 6790 27700 34900 35400 36200 37700
2024-06-11 01:45 13.45 36500 38500 (2002) 672 (2000) 22500 895 1850 5410 6790 27700 34900 35400 36200 37700
2024-06-11 00:45 13.39 36200 38500 (2002) 672 (2000) 22500 895 1850 5410 6790 27700 34900 35400 36200 37700
2024-06-10 23:45 13.40 36300 38500 (2002) 672 (2000) 22500 895 1850 5410 6790 27700 34900 35400 36200 37700
2024-06-10 22:45 13.37 36100 45600 (2002) 1300 (2000) 22600 1300 1390 4130 6850 28200 34500 34700 37300 43600
2024-06-10 21:45 13.36 36100 45600 (2002) 1300 (2000) 22600 1300 1390 4130 6850 28200 34500 34700 37300 43600
2024-06-10 20:45 13.32 35900 45600 (2002) 1300 (2000) 22600 1300 1390 4130 6850 28200 34500 34700 37300 43600
2024-06-10 19:45 13.30 35800 45600 (2002) 1300 (2000) 22600 1300 1390 4130 6850 28200 34500 34700 37300 43600
2024-06-10 18:45 13.25 35700 45600 (2002) 1300 (2000) 22600 1300 1390 4130 6850 28200 34500 34700 37300 43600
2024-06-10 17:45 13.20 35500 45600 (2002) 1300 (2000) 22600 1300 1390 4130 6850 28200 34500 34700 37300 43600
2024-06-10 16:45 13.14 35200 45600 (2002) 1300 (2000) 22600 1300 1390 4130 6850 28200 34500 34700 37300 43600
2024-06-10 15:45 13.07 34900 45600 (2002) 1300 (2000) 22600 1300 1390 4130 6850 28200 34500 34700 37300 43600
2024-06-10 14:45 13.03 34800 45600 (2002) 1300 (2000) 22600 1300 1390 4130 6850 28200 34500 34700 37300 43600
2024-06-10 13:45 12.89 34200 45600 (2002) 1300 (2000) 22600 1300 1390 4130 6850 28200 34500 34700 37300 43600
2024-06-10 12:45 12.80 33900 45600 (2002) 1300 (2000) 22600 1300 1390 4130 6850 28200 34500 34700 37300 43600
2024-06-10 11:45 12.72 33500 45600 (2002) 1300 (2000) 22600 1300 1390 4130 6850 28200 34500 34700 37300 43600
2024-06-10 10:45 12.62 33100 45600 (2002) 1300 (2000) 22600 1300 1390 4130 6850 28200 34500 34700 37300 43600
2024-06-10 09:45 12.50 32700 45600 (2002) 1300 (2000) 22600 1300 1390 4130 6850 28200 34500 34700 37300 43600
2024-06-10 08:45 12.32 32000 45600 (2002) 1300 (2000) 22600 1300 1390 4130 6850 28200 34500 34700 37300 43600
2024-06-10 07:45 12.19 31500 45600 (2002) 1300 (2000) 22600 1300 1390 4130 6850 28200 34500 34700 37300 43600
2024-06-10 06:45 12.00 30800 45600 (2002) 1300 (2000) 22600 1300 1390 4130 6850 28200 34500 34700 37300 43600
2024-06-10 05:45 11.85 30200 45600 (2002) 1300 (2000) 22600 1300 1390 4130 6850 28200 34500 34700 37300 43600
2024-06-10 04:45 11.71 29600 45600 (2002) 1300 (2000) 22600 1300 1390 4130 6850 28200 34500 34700 37300 43600
2024-06-10 03:45 11.49 28800 45600 (2002) 1300 (2000) 22600 1300 1390 4130 6850 28200 34500 34700 37300 43600
2024-06-10 02:45 11.34 28300 45600 (2002) 1300 (2000) 22600 1300 1390 4130 6850 28200 34500 34700 37300 43600
2024-06-10 01:45 11.15 27600 45600 (2002) 1300 (2000) 22600 1300 1390 4130 6850 28200 34500 34700 37300 43600
2024-06-10 00:45 10.97 26900 45600 (2002) 1300 (2000) 22600 1300 1390 4130 6850 28200 34500 34700 37300 43600
2024-06-09 23:45 10.82 26400 45600 (2002) 1300 (2000) 22600 1300 1390 4130 6850 28200 34500 34700 37300 43600
2024-06-09 22:45 10.70 26000 47700 (2002) 1310 (2012) 23900 1380 1730 3990 7770 31500 37200 38200 41300 46800
2024-06-09 21:45 10.62 25700 47700 (2002) 1310 (2012) 23900 1380 1730 3990 7770 31500 37200 38200 41300 46800
2024-06-09 20:45 10.54 25400 47700 (2002) 1310 (2012) 23900 1380 1730 3990 7770 31500 37200 38200 41300 46800
2024-06-09 19:45 10.55 25400 47700 (2002) 1310 (2012) 23900 1380 1730 3990 7770 31500 37200 38200 41300 46800
2024-06-09 18:45 10.60 25600 47700 (2002) 1310 (2012) 23900 1380 1730 3990 7770 31500 37200 38200 41300 46800
2024-06-09 17:45 10.73 26100 47700 (2002) 1310 (2012) 23900 1380 1730 3990 7770 31500 37200 38200 41300 46800
2024-06-09 16:45 10.92 26700 47700 (2002) 1310 (2012) 23900 1380 1730 3990 7770 31500 37200 38200 41300 46800
2024-06-09 15:45 11.08 27300 47700 (2002) 1310 (2012) 23900 1380 1730 3990 7770 31500 37200 38200 41300 46800
2024-06-09 14:45 11.28 28000 47700 (2002) 1310 (2012) 23900 1380 1730 3990 7770 31500 37200 38200 41300 46800
2024-06-09 13:45 11.43 28600 47700 (2002) 1310 (2012) 23900 1380 1730 3990 7770 31500 37200 38200 41300 46800
2024-06-09 12:45 11.54 29000 47700 (2002) 1310 (2012) 23900 1380 1730 3990 7770 31500 37200 38200 41300 46800
2024-06-09 11:45 11.60 29300 47700 (2002) 1310 (2012) 23900 1380 1730 3990 7770 31500 37200 38200 41300 46800
2024-06-09 10:45 11.57 29100 47700 (2002) 1310 (2012) 23900 1380 1730 3990 7770 31500 37200 38200 41300 46800
2024-06-09 09:45 11.45 28700 47700 (2002) 1310 (2012) 23900 1380 1730 3990 7770 31500 37200 38200 41300 46800
2024-06-09 08:45 11.19 27700 47700 (2002) 1310 (2012) 23900 1380 1730 3990 7770 31500 37200 38200 41300 46800
2024-06-09 07:45 10.92 26700 47700 (2002) 1310 (2012) 23900 1380 1730 3990 7770 31500 37200 38200 41300 46800
2024-06-09 06:45 10.59 25600 47700 (2002) 1310 (2012) 23900 1380 1730 3990 7770 31500 37200 38200 41300 46800
2024-06-09 05:45 10.25 24400 47700 (2002) 1310 (2012) 23900 1380 1730 3990 7770 31500 37200 38200 41300 46800
2024-06-09 04:45 9.94 23300 47700 (2002) 1310 (2012) 23900 1380 1730 3990 7770 31500 37200 38200 41300 46800
2024-06-09 03:45 9.60 22200 47700 (2002) 1310 (2012) 23900 1380 1730 3990 7770 31500 37200 38200 41300 46800
2024-06-09 02:45 9.32 21100 47700 (2002) 1310 (2012) 23900 1380 1730 3990 7770 31500 37200 38200 41300 46800
2024-06-09 01:45 9.06 20100 47700 (2002) 1310 (2012) 23900 1380 1730 3990 7770 31500 37200 38200 41300 46800
2024-06-09 00:45 8.89 19400 47700 (2002) 1310 (2012) 23900 1380 1730 3990 7770 31500 37200 38200 41300 46800
2024-06-08 23:45 8.72 18800 47700 (2002) 1310 (2012) 23900 1380 1730 3990 7770 31500 37200 38200 41300 46800
2024-06-08 22:45 8.57 18200 47500 (2002) 501 (2000) 23000 662 1220 4260 6660 27900 36500 37400 40900 45300
2024-06-08 21:45 8.46 17800 47500 (2002) 501 (2000) 23000 662 1220 4260 6660 27900 36500 37400 40900 45300
2024-06-08 20:45 8.37 17500 47500 (2002) 501 (2000) 23000 662 1220 4260 6660 27900 36500 37400 40900 45300
2024-06-08 19:45 8.37 17500 47500 (2002) 501 (2000) 23000 662 1220 4260 6660 27900 36500 37400 40900 45300
2024-06-08 18:45 8.46 17800 47500 (2002) 501 (2000) 23000 662 1220 4260 6660 27900 36500 37400 40900 45300
2024-06-08 17:45 8.60 18300 47500 (2002) 501 (2000) 23000 662 1220 4260 6660 27900 36500 37400 40900 45300
2024-06-08 16:45 8.76 18900 47500 (2002) 501 (2000) 23000 662 1220 4260 6660 27900 36500 37400 40900 45300
2024-06-08 15:45 8.96 19700 47500 (2002) 501 (2000) 23000 662 1220 4260 6660 27900 36500 37400 40900 45300
2024-06-08 14:45 9.16 20500 47500 (2002) 501 (2000) 23000 662 1220 4260 6660 27900 36500 37400 40900 45300
2024-06-08 13:45 9.38 21300 47500 (2002) 501 (2000) 23000 662 1220 4260 6660 27900 36500 37400 40900 45300
2024-06-08 12:45 9.56 22100 47500 (2002) 501 (2000) 23000 662 1220 4260 6660 27900 36500 37400 40900 45300
2024-06-08 11:45 9.80 22900 47500 (2002) 501 (2000) 23000 662 1220 4260 6660 27900 36500 37400 40900 45300
2024-06-08 10:45 1 23500 47500 (2002) 501 (2000) 23000 662 1220 4260 6660 27900 36500 37400 40900 45300
2024-06-08 09:45 10.18 24100 47500 (2002) 501 (2000) 23000 662 1220 4260 6660 27900 36500 37400 40900 45300
2024-06-08 08:45 10.37 24800 47500 (2002) 501 (2000) 23000 662 1220 4260 6660 27900 36500 37400 40900 45300
2024-06-08 07:45 10.51 25300 47500 (2002) 501 (2000) 23000 662 1220 4260 6660 27900 36500 37400 40900 45300
2024-06-08 06:45 10.61 25600 47500 (2002) 501 (2000) 23000 662 1220 4260 6660 27900 36500 37400 40900 45300
2024-06-08 05:45 10.67 25900 47500 (2002) 501 (2000) 23000 662 1220 4260 6660 27900 36500 37400 40900 45300
2024-06-08 04:45 10.67 25900 47500 (2002) 501 (2000) 23000 662 1220 4260 6660 27900 36500 37400 40900 45300
2024-06-08 03:45 10.62 25700 47500 (2002) 501 (2000) 23000 662 1220 4260 6660 27900 36500 37400 40900 45300
2024-06-08 02:45 10.52 25300 47500 (2002) 501 (2000) 23000 662 1220 4260 6660 27900 36500 37400 40900 45300
2024-06-08 01:45 10.36 24800 47500 (2002) 501 (2000) 23000 662 1220 4260 6660 27900 36500 37400 40900 45300
2024-06-08 00:45 10.10 23900 47500 (2002) 501 (2000) 23000 662 1220 4260 6660 27900 36500 37400 40900 45300
2024-06-07 23:45 9.81 22900 47500 (2002) 501 (2000) 23000 662 1220 4260 6660 27900 36500 37400 40900 45300

A total of 169 rows are displayed for years 1997 through 2023.